sensor_id;sensor_type;location;lat;lon;timestamp;temperature;humidity
46085;DHT22;31823;47.032;8.310;2023-08-06T00:00:39;16.00;99.90
46085;DHT22;31823;47.032;8.310;2023-08-06T00:03:05;16.10;99.90
46085;DHT22;31823;47.032;8.310;2023-08-06T00:05:31;16.10;99.90
46085;DHT22;31823;47.032;8.310;2023-08-06T00:07:56;16.20;99.90
46085;DHT22;31823;47.032;8.310;2023-08-06T00:10:22;16.40;99.90
46085;DHT22;31823;47.032;8.310;2023-08-06T00:12:47;16.40;99.90
46085;DHT22;31823;47.032;8.310;2023-08-06T00:15:14;16.30;99.90
46085;DHT22;31823;47.032;8.310;2023-08-06T00:17:39;16.40;99.90
46085;DHT22;31823;47.032;8.310;2023-08-06T00:20:05;16.40;99.90
46085;DHT22;31823;47.032;8.310;2023-08-06T00:22:36;16.40;99.90
46085;DHT22;31823;47.032;8.310;2023-08-06T00:25:03;16.40;99.90
46085;DHT22;31823;47.032;8.310;2023-08-06T00:27:28;16.60;99.90
46085;DHT22;31823;47.032;8.310;2023-08-06T00:29:54;16.50;99.90
46085;DHT22;31823;47.032;8.310;2023-08-06T00:32:20;16.60;99.90
46085;DHT22;31823;47.032;8.310;2023-08-06T00:35:06;16.50;99.90
46085;DHT22;31823;47.032;8.310;2023-08-06T00:37:31;16.40;99.90
46085;DHT22;31823;47.032;8.310;2023-08-06T00:39:57;16.20;99.90
46085;DHT22;31823;47.032;8.310;2023-08-06T00:42:22;16.50;99.90
46085;DHT22;31823;47.032;8.310;2023-08-06T00:44:48;16.40;99.90
46085;DHT22;31823;47.032;8.310;2023-08-06T00:47:14;16.50;99.90
46085;DHT22;31823;47.032;8.310;2023-08-06T00:49:40;16.50;99.90
46085;DHT22;31823;47.032;8.310;2023-08-06T00:52:07;16.30;99.90
46085;DHT22;31823;47.032;8.310;2023-08-06T00:54:34;16.60;99.70
46085;DHT22;31823;47.032;8.310;2023-08-06T00:57:01;16.70;99.20
46085;DHT22;31823;47.032;8.310;2023-08-06T00:59:28;16.70;99.50
46085;DHT22;31823;47.032;8.310;2023-08-06T01:01:53;16.70;99.10
46085;DHT22;31823;47.032;8.310;2023-08-06T01:04:19;16.70;99.40
46085;DHT22;31823;47.032;8.310;2023-08-06T01:06:48;16.40;99.90
46085;DHT22;31823;47.032;8.310;2023-08-06T01:09:43;16.50;99.80
46085;DHT22;31823;47.032;8.310;2023-08-06T01:12:25;16.30;99.90
46085;DHT22;31823;47.032;8.310;2023-08-06T01:15:15;16.00;99.90
46085;DHT22;31823;47.032;8.310;2023-08-06T01:17:42;14.80;99.90
46085;DHT22;31823;47.032;8.310;2023-08-06T01:20:09;15.10;99.90
46085;DHT22;31823;47.032;8.310;2023-08-06T01:22:34;15.60;99.90
46085;DHT22;31823;47.032;8.310;2023-08-06T01:25:00;15.20;99.90
46085;DHT22;31823;47.032;8.310;2023-08-06T01:27:36;15.40;99.90
46085;DHT22;31823;47.032;8.310;2023-08-06T01:32:35;16.20;99.90
46085;DHT22;31823;47.032;8.310;2023-08-06T01:35:03;15.60;99.90
46085;DHT22;31823;47.032;8.310;2023-08-06T01:37:29;14.80;99.90
46085;DHT22;31823;47.032;8.310;2023-08-06T01:39:55;14.70;99.90
46085;DHT22;31823;47.032;8.310;2023-08-06T01:42:21;14.60;99.90
46085;DHT22;31823;47.032;8.310;2023-08-06T01:44:46;15.00;99.90
46085;DHT22;31823;47.032;8.310;2023-08-06T01:47:12;14.80;99.90
46085;DHT22;31823;47.032;8.310;2023-08-06T01:49:37;14.60;99.90
46085;DHT22;31823;47.032;8.310;2023-08-06T01:52:03;14.60;99.90
46085;DHT22;31823;47.032;8.310;2023-08-06T01:54:29;14.50;99.90
46085;DHT22;31823;47.032;8.310;2023-08-06T01:56:54;14.10;99.90
46085;DHT22;31823;47.032;8.310;2023-08-06T01:59:20;14.10;99.90
46085;DHT22;31823;47.032;8.310;2023-08-06T02:01:45;14.30;99.90
46085;DHT22;31823;47.032;8.310;2023-08-06T02:04:11;14.90;99.90
46085;DHT22;31823;47.032;8.310;2023-08-06T02:06:36;14.40;99.90
46085;DHT22;31823;47.032;8.310;2023-08-06T02:09:02;14.20;99.90
46085;DHT22;31823;47.032;8.310;2023-08-06T02:11:27;14.00;99.90
46085;DHT22;31823;47.032;8.310;2023-08-06T02:13:53;14.00;99.90
46085;DHT22;31823;47.032;8.310;2023-08-06T02:16:19;13.90;99.90
46085;DHT22;31823;47.032;8.310;2023-08-06T02:18:45;13.80;99.90
46085;DHT22;31823;47.032;8.310;2023-08-06T02:21:10;13.70;99.90
46085;DHT22;31823;47.032;8.310;2023-08-06T02:23:36;13.50;99.90
46085;DHT22;31823;47.032;8.310;2023-08-06T02:26:03;13.50;99.90
46085;DHT22;31823;47.032;8.310;2023-08-06T02:28:30;13.80;99.90
46085;DHT22;31823;47.032;8.310;2023-08-06T02:30:55;14.10;99.90
46085;DHT22;31823;47.032;8.310;2023-08-06T02:33:21;15.00;99.90
46085;DHT22;31823;47.032;8.310;2023-08-06T02:35:47;15.60;99.90
46085;DHT22;31823;47.032;8.310;2023-08-06T02:38:12;15.70;99.90
46085;DHT22;31823;47.032;8.310;2023-08-06T02:40:46;16.00;99.90
46085;DHT22;31823;47.032;8.310;2023-08-06T02:43:12;16.00;99.90
46085;DHT22;31823;47.032;8.310;2023-08-06T02:45:37;15.90;99.90
46085;DHT22;31823;47.032;8.310;2023-08-06T02:48:03;15.90;99.90
46085;DHT22;31823;47.032;8.310;2023-08-06T02:50:29;15.70;99.90
46085;DHT22;31823;47.032;8.310;2023-08-06T02:52:54;16.20;99.90
46085;DHT22;31823;47.032;8.310;2023-08-06T02:55:20;16.30;99.90
46085;DHT22;31823;47.032;8.310;2023-08-06T02:57:45;16.20;99.90
46085;DHT22;31823;47.032;8.310;2023-08-06T03:00:11;16.30;99.90
46085;DHT22;31823;47.032;8.310;2023-08-06T03:02:37;16.20;99.90
46085;DHT22;31823;47.032;8.310;2023-08-06T03:05:03;16.10;99.90
46085;DHT22;31823;47.032;8.310;2023-08-06T03:07:29;16.00;99.90
46085;DHT22;31823;47.032;8.310;2023-08-06T03:09:54;16.00;99.90
46085;DHT22;31823;47.032;8.310;2023-08-06T03:12:20;15.00;99.90
46085;DHT22;31823;47.032;8.310;2023-08-06T03:14:46;14.40;99.90
46085;DHT22;31823;47.032;8.310;2023-08-06T03:17:11;14.20;99.90
46085;DHT22;31823;47.032;8.310;2023-08-06T03:19:37;14.10;99.90
46085;DHT22;31823;47.032;8.310;2023-08-06T03:22:02;14.10;99.90
46085;DHT22;31823;47.032;8.310;2023-08-06T03:24:28;14.80;99.90
46085;DHT22;31823;47.032;8.310;2023-08-06T03:26:53;15.20;99.90
46085;DHT22;31823;47.032;8.310;2023-08-06T03:29:19;14.90;99.90
46085;DHT22;31823;47.032;8.310;2023-08-06T03:31:45;14.40;99.90
46085;DHT22;31823;47.032;8.310;2023-08-06T03:34:10;14.20;99.90
46085;DHT22;31823;47.032;8.310;2023-08-06T03:36:36;13.90;99.90
46085;DHT22;31823;47.032;8.310;2023-08-06T03:39:02;13.90;99.90
46085;DHT22;31823;47.032;8.310;2023-08-06T03:41:27;14.00;99.90
46085;DHT22;31823;47.032;8.310;2023-08-06T03:43:53;14.10;99.90
46085;DHT22;31823;47.032;8.310;2023-08-06T03:46:18;14.20;99.90
46085;DHT22;31823;47.032;8.310;2023-08-06T03:48:44;14.10;99.90
46085;DHT22;31823;47.032;8.310;2023-08-06T03:51:09;13.80;99.90
46085;DHT22;31823;47.032;8.310;2023-08-06T03:53:35;14.40;99.90
46085;DHT22;31823;47.032;8.310;2023-08-06T03:56:00;14.30;99.90
46085;DHT22;31823;47.032;8.310;2023-08-06T03:58:26;14.00;99.90
46085;DHT22;31823;47.032;8.310;2023-08-06T04:01:02;13.90;99.90
46085;DHT22;31823;47.032;8.310;2023-08-06T04:03:28;13.80;99.90
46085;DHT22;31823;47.032;8.310;2023-08-06T04:05:54;13.70;99.90
46085;DHT22;31823;47.032;8.310;2023-08-06T04:08:19;13.50;99.90
46085;DHT22;31823;47.032;8.310;2023-08-06T04:10:45;13.40;99.90
46085;DHT22;31823;47.032;8.310;2023-08-06T04:13:10;13.50;99.90
46085;DHT22;31823;47.032;8.310;2023-08-06T04:15:36;13.90;99.90
46085;DHT22;31823;47.032;8.310;2023-08-06T04:18:02;14.10;99.90
46085;DHT22;31823;47.032;8.310;2023-08-06T04:20:27;13.90;99.90
46085;DHT22;31823;47.032;8.310;2023-08-06T04:22:54;14.30;99.90
46085;DHT22;31823;47.032;8.310;2023-08-06T04:25:20;14.00;99.90
46085;DHT22;31823;47.032;8.310;2023-08-06T04:27:47;13.80;99.90
46085;DHT22;31823;47.032;8.310;2023-08-06T04:30:12;13.70;99.90
46085;DHT22;31823;47.032;8.310;2023-08-06T04:32:39;13.60;99.90
46085;DHT22;31823;47.032;8.310;2023-08-06T04:35:05;13.80;99.90
46085;DHT22;31823;47.032;8.310;2023-08-06T04:37:31;14.20;99.90
46085;DHT22;31823;47.032;8.310;2023-08-06T04:39:56;15.10;99.90
46085;DHT22;31823;47.032;8.310;2023-08-06T04:42:22;15.70;99.90
46085;DHT22;31823;47.032;8.310;2023-08-06T04:44:47;15.80;99.90
46085;DHT22;31823;47.032;8.310;2023-08-06T04:47:13;15.10;99.90
46085;DHT22;31823;47.032;8.310;2023-08-06T04:49:38;15.70;99.90
46085;DHT22;31823;47.032;8.310;2023-08-06T04:52:04;15.60;99.90
46085;DHT22;31823;47.032;8.310;2023-08-06T04:54:31;15.50;99.90
46085;DHT22;31823;47.032;8.310;2023-08-06T04:56:56;15.80;99.90
46085;DHT22;31823;47.032;8.310;2023-08-06T04:59:22;15.80;99.90
46085;DHT22;31823;47.032;8.310;2023-08-06T05:01:47;15.50;99.90
46085;DHT22;31823;47.032;8.310;2023-08-06T05:04:13;15.80;99.90
46085;DHT22;31823;47.032;8.310;2023-08-06T05:06:38;16.10;99.90
46085;DHT22;31823;47.032;8.310;2023-08-06T05:09:04;16.20;99.90
46085;DHT22;31823;47.032;8.310;2023-08-06T05:11:31;16.10;99.90
46085;DHT22;31823;47.032;8.310;2023-08-06T05:13:56;16.10;99.90
46085;DHT22;31823;47.032;8.310;2023-08-06T05:16:22;16.10;99.90
46085;DHT22;31823;47.032;8.310;2023-08-06T05:18:48;16.00;99.90
46085;DHT22;31823;47.032;8.310;2023-08-06T05:21:13;16.00;99.90
46085;DHT22;31823;47.032;8.310;2023-08-06T05:23:39;16.00;99.90
46085;DHT22;31823;47.032;8.310;2023-08-06T05:26:04;15.90;99.90
46085;DHT22;31823;47.032;8.310;2023-08-06T05:28:30;16.00;99.90
46085;DHT22;31823;47.032;8.310;2023-08-06T05:30:55;16.00;99.90
46085;DHT22;31823;47.032;8.310;2023-08-06T05:33:21;16.00;99.90
46085;DHT22;31823;47.032;8.310;2023-08-06T05:35:46;15.80;99.90
46085;DHT22;31823;47.032;8.310;2023-08-06T05:38:12;15.60;99.90
46085;DHT22;31823;47.032;8.310;2023-08-06T05:40:37;15.50;99.90
46085;DHT22;31823;47.032;8.310;2023-08-06T05:43:03;15.30;99.90
46085;DHT22;31823;47.032;8.310;2023-08-06T05:45:28;14.90;99.90
46085;DHT22;31823;47.032;8.310;2023-08-06T05:47:54;14.60;99.90
46085;DHT22;31823;47.032;8.310;2023-08-06T05:50:23;14.30;99.90
46085;DHT22;31823;47.032;8.310;2023-08-06T05:52:48;14.00;99.90
46085;DHT22;31823;47.032;8.310;2023-08-06T05:55:14;13.90;99.90
46085;DHT22;31823;47.032;8.310;2023-08-06T05:57:39;13.70;99.90
46085;DHT22;31823;47.032;8.310;2023-08-06T06:00:05;13.30;99.90
46085;DHT22;31823;47.032;8.310;2023-08-06T06:02:32;13.40;99.90
46085;DHT22;31823;47.032;8.310;2023-08-06T06:04:57;13.40;99.90
46085;DHT22;31823;47.032;8.310;2023-08-06T06:07:23;13.20;99.90
46085;DHT22;31823;47.032;8.310;2023-08-06T06:09:48;13.30;99.90
46085;DHT22;31823;47.032;8.310;2023-08-06T06:12:14;13.40;99.90
46085;DHT22;31823;47.032;8.310;2023-08-06T06:14:39;13.40;99.90
46085;DHT22;31823;47.032;8.310;2023-08-06T06:17:05;13.50;99.90
46085;DHT22;31823;47.032;8.310;2023-08-06T06:19:30;13.60;99.90
46085;DHT22;31823;47.032;8.310;2023-08-06T06:21:56;13.60;99.90
46085;DHT22;31823;47.032;8.310;2023-08-06T06:24:23;13.70;99.90
46085;DHT22;31823;47.032;8.310;2023-08-06T06:26:48;13.50;99.90
46085;DHT22;31823;47.032;8.310;2023-08-06T06:29:14;13.80;99.90
46085;DHT22;31823;47.032;8.310;2023-08-06T06:31:39;13.90;99.90
46085;DHT22;31823;47.032;8.310;2023-08-06T06:34:05;13.90;99.90
46085;DHT22;31823;47.032;8.310;2023-08-06T06:36:30;14.00;99.90
46085;DHT22;31823;47.032;8.310;2023-08-06T06:38:56;14.00;99.90
46085;DHT22;31823;47.032;8.310;2023-08-06T06:41:21;14.10;99.90
46085;DHT22;31823;47.032;8.310;2023-08-06T06:43:47;14.00;99.90
46085;DHT22;31823;47.032;8.310;2023-08-06T06:46:12;14.10;99.90
46085;DHT22;31823;47.032;8.310;2023-08-06T06:48:38;14.00;99.90
46085;DHT22;31823;47.032;8.310;2023-08-06T06:51:03;14.10;99.90
46085;DHT22;31823;47.032;8.310;2023-08-06T06:53:29;14.20;99.90
46085;DHT22;31823;47.032;8.310;2023-08-06T06:55:55;14.30;99.90
46085;DHT22;31823;47.032;8.310;2023-08-06T06:58:21;14.30;99.90
46085;DHT22;31823;47.032;8.310;2023-08-06T07:00:47;14.70;99.90
46085;DHT22;31823;47.032;8.310;2023-08-06T07:03:14;14.60;99.90
46085;DHT22;31823;47.032;8.310;2023-08-06T07:05:40;14.60;99.90
46085;DHT22;31823;47.032;8.310;2023-08-06T07:08:05;14.60;99.90
46085;DHT22;31823;47.032;8.310;2023-08-06T07:10:31;14.60;99.90
46085;DHT22;31823;47.032;8.310;2023-08-06T07:12:57;14.60;99.90
46085;DHT22;31823;47.032;8.310;2023-08-06T07:15:22;14.70;99.90
46085;DHT22;31823;47.032;8.310;2023-08-06T07:17:48;14.60;99.90
46085;DHT22;31823;47.032;8.310;2023-08-06T07:20:13;14.70;99.90
46085;DHT22;31823;47.032;8.310;2023-08-06T07:22:39;14.60;99.90
46085;DHT22;31823;47.032;8.310;2023-08-06T07:25:05;14.70;99.90
46085;DHT22;31823;47.032;8.310;2023-08-06T07:27:30;14.70;99.90
46085;DHT22;31823;47.032;8.310;2023-08-06T07:29:57;14.70;99.90
46085;DHT22;31823;47.032;8.310;2023-08-06T07:32:23;14.70;99.90
46085;DHT22;31823;47.032;8.310;2023-08-06T07:34:49;14.70;99.90
46085;DHT22;31823;47.032;8.310;2023-08-06T07:37:15;14.80;99.90
46085;DHT22;31823;47.032;8.310;2023-08-06T07:39:40;14.90;99.90
46085;DHT22;31823;47.032;8.310;2023-08-06T07:42:08;14.90;99.90
46085;DHT22;31823;47.032;8.310;2023-08-06T07:44:33;14.90;99.90
46085;DHT22;31823;47.032;8.310;2023-08-06T07:46:59;14.90;99.90
46085;DHT22;31823;47.032;8.310;2023-08-06T07:49:24;15.00;99.90
46085;DHT22;31823;47.032;8.310;2023-08-06T07:51:50;14.90;99.90
46085;DHT22;31823;47.032;8.310;2023-08-06T07:54:17;14.90;99.90
46085;DHT22;31823;47.032;8.310;2023-08-06T07:56:42;14.80;99.90
46085;DHT22;31823;47.032;8.310;2023-08-06T07:59:08;14.90;99.90
46085;DHT22;31823;47.032;8.310;2023-08-06T08:01:34;14.80;99.90
46085;DHT22;31823;47.032;8.310;2023-08-06T08:04:00;14.80;99.90
46085;DHT22;31823;47.032;8.310;2023-08-06T08:06:25;14.70;99.90
46085;DHT22;31823;47.032;8.310;2023-08-06T08:08:51;14.80;99.90
46085;DHT22;31823;47.032;8.310;2023-08-06T08:11:17;14.90;99.90
46085;DHT22;31823;47.032;8.310;2023-08-06T08:13:43;14.90;99.90
46085;DHT22;31823;47.032;8.310;2023-08-06T08:16:09;14.80;99.90
46085;DHT22;31823;47.032;8.310;2023-08-06T08:18:35;14.90;99.90
46085;DHT22;31823;47.032;8.310;2023-08-06T08:21:00;14.90;99.90
46085;DHT22;31823;47.032;8.310;2023-08-06T08:23:26;14.90;99.90
46085;DHT22;31823;47.032;8.310;2023-08-06T08:25:51;14.90;99.90
46085;DHT22;31823;47.032;8.310;2023-08-06T08:28:17;15.00;99.90
46085;DHT22;31823;47.032;8.310;2023-08-06T08:30:42;15.00;99.90
46085;DHT22;31823;47.032;8.310;2023-08-06T08:33:08;15.00;99.90
46085;DHT22;31823;47.032;8.310;2023-08-06T08:35:34;15.10;99.90
46085;DHT22;31823;47.032;8.310;2023-08-06T08:37:59;15.10;99.90
46085;DHT22;31823;47.032;8.310;2023-08-06T08:40:31;15.10;99.90
46085;DHT22;31823;47.032;8.310;2023-08-06T08:42:57;15.20;99.90
46085;DHT22;31823;47.032;8.310;2023-08-06T08:45:26;15.30;99.90
46085;DHT22;31823;47.032;8.310;2023-08-06T08:47:52;15.40;99.90
46085;DHT22;31823;47.032;8.310;2023-08-06T08:50:17;15.50;99.90
46085;DHT22;31823;47.032;8.310;2023-08-06T08:52:45;15.50;99.90
46085;DHT22;31823;47.032;8.310;2023-08-06T08:55:12;15.60;99.90
46085;DHT22;31823;47.032;8.310;2023-08-06T08:57:39;15.70;99.90
46085;DHT22;31823;47.032;8.310;2023-08-06T09:00:05;15.70;99.90
46085;DHT22;31823;47.032;8.310;2023-08-06T09:02:33;15.70;99.90
46085;DHT22;31823;47.032;8.310;2023-08-06T09:05:00;15.90;99.90
46085;DHT22;31823;47.032;8.310;2023-08-06T09:07:31;15.80;99.90
46085;DHT22;31823;47.032;8.310;2023-08-06T09:09:58;15.80;99.90
46085;DHT22;31823;47.032;8.310;2023-08-06T09:12:24;15.80;99.90
46085;DHT22;31823;47.032;8.310;2023-08-06T09:14:50;15.80;99.90
46085;DHT22;31823;47.032;8.310;2023-08-06T09:17:16;15.90;99.90
46085;DHT22;31823;47.032;8.310;2023-08-06T09:19:45;15.90;99.90
46085;DHT22;31823;47.032;8.310;2023-08-06T09:22:12;16.00;99.90
46085;DHT22;31823;47.032;8.310;2023-08-06T09:24:40;16.00;99.90
46085;DHT22;31823;47.032;8.310;2023-08-06T09:27:14;16.00;99.90
46085;DHT22;31823;47.032;8.310;2023-08-06T09:29:46;16.20;99.90
46085;DHT22;31823;47.032;8.310;2023-08-06T09:32:12;16.10;99.90
46085;DHT22;31823;47.032;8.310;2023-08-06T09:34:42;16.20;99.90
46085;DHT22;31823;47.032;8.310;2023-08-06T09:37:11;16.70;99.90
46085;DHT22;31823;47.032;8.310;2023-08-06T09:39:38;16.90;99.90
46085;DHT22;31823;47.032;8.310;2023-08-06T09:42:04;16.60;99.90
46085;DHT22;31823;47.032;8.310;2023-08-06T09:44:32;15.90;99.90
46085;DHT22;31823;47.032;8.310;2023-08-06T09:46:59;16.00;99.90
46085;DHT22;31823;47.032;8.310;2023-08-06T09:49:27;16.40;99.90
46085;DHT22;31823;47.032;8.310;2023-08-06T09:51:53;17.10;99.90
46085;DHT22;31823;47.032;8.310;2023-08-06T09:54:24;17.40;99.90
46085;DHT22;31823;47.032;8.310;2023-08-06T09:56:50;17.10;99.40
46085;DHT22;31823;47.032;8.310;2023-08-06T09:59:17;16.90;99.90
46085;DHT22;31823;47.032;8.310;2023-08-06T10:01:43;17.60;99.90
46085;DHT22;31823;47.032;8.310;2023-08-06T10:04:09;17.60;99.10
46085;DHT22;31823;47.032;8.310;2023-08-06T10:06:37;17.60;98.80
46085;DHT22;31823;47.032;8.310;2023-08-06T10:09:04;17.00;99.90
46085;DHT22;31823;47.032;8.310;2023-08-06T10:11:30;17.10;99.10
46085;DHT22;31823;47.032;8.310;2023-08-06T10:14:03;16.90;99.80
46085;DHT22;31823;47.032;8.310;2023-08-06T10:16:30;17.00;99.50
46085;DHT22;31823;47.032;8.310;2023-08-06T10:18:56;17.10;99.70
46085;DHT22;31823;47.032;8.310;2023-08-06T10:21:24;16.70;99.60
46085;DHT22;31823;47.032;8.310;2023-08-06T10:23:56;16.70;99.90
46085;DHT22;31823;47.032;8.310;2023-08-06T10:26:26;16.70;99.90
46085;DHT22;31823;47.032;8.310;2023-08-06T10:28:52;16.70;99.90
46085;DHT22;31823;47.032;8.310;2023-08-06T10:31:18;16.70;99.90
46085;DHT22;31823;47.032;8.310;2023-08-06T10:33:47;16.70;99.90
46085;DHT22;31823;47.032;8.310;2023-08-06T10:36:14;16.30;99.90
46085;DHT22;31823;47.032;8.310;2023-08-06T10:38:50;15.60;99.90
46085;DHT22;31823;47.032;8.310;2023-08-06T10:41:22;14.80;99.90
46085;DHT22;31823;47.032;8.310;2023-08-06T10:43:49;14.80;99.90
46085;DHT22;31823;47.032;8.310;2023-08-06T10:46:22;15.20;99.90
46085;DHT22;31823;47.032;8.310;2023-08-06T10:48:49;15.60;99.90
46085;DHT22;31823;47.032;8.310;2023-08-06T10:51:14;16.50;99.90
46085;DHT22;31823;47.032;8.310;2023-08-06T10:53:44;16.90;99.90
46085;DHT22;31823;47.032;8.310;2023-08-06T10:58:40;17.10;99.90
46085;DHT22;31823;47.032;8.310;2023-08-06T11:01:06;17.60;99.90
46085;DHT22;31823;47.032;8.310;2023-08-06T11:03:32;16.80;99.90
46085;DHT22;31823;47.032;8.310;2023-08-06T11:05:58;17.20;99.90
46085;DHT22;31823;47.032;8.310;2023-08-06T11:08:25;16.60;99.90
46085;DHT22;31823;47.032;8.310;2023-08-06T11:10:51;16.00;99.90
46085;DHT22;31823;47.032;8.310;2023-08-06T11:13:17;16.20;99.90
46085;DHT22;31823;47.032;8.310;2023-08-06T11:15:44;16.30;99.90
46085;DHT22;31823;47.032;8.310;2023-08-06T11:18:10;16.20;99.90
46085;DHT22;31823;47.032;8.310;2023-08-06T11:20:36;16.40;99.90
46085;DHT22;31823;47.032;8.310;2023-08-06T11:23:02;16.40;99.90
46085;DHT22;31823;47.032;8.310;2023-08-06T11:25:28;16.20;99.90
46085;DHT22;31823;47.032;8.310;2023-08-06T11:27:54;16.10;99.90
46085;DHT22;31823;47.032;8.310;2023-08-06T11:30:20;16.20;99.90
46085;DHT22;31823;47.032;8.310;2023-08-06T11:32:46;16.20;99.90
46085;DHT22;31823;47.032;8.310;2023-08-06T11:35:13;16.40;99.90
46085;DHT22;31823;47.032;8.310;2023-08-06T11:37:42;16.40;99.90
46085;DHT22;31823;47.032;8.310;2023-08-06T11:40:09;16.50;99.90
46085;DHT22;31823;47.032;8.310;2023-08-06T11:42:36;16.40;99.90
46085;DHT22;31823;47.032;8.310;2023-08-06T11:45:05;16.40;99.90
46085;DHT22;31823;47.032;8.310;2023-08-06T11:47:31;16.60;99.90
46085;DHT22;31823;47.032;8.310;2023-08-06T11:49:56;16.70;99.70
46085;DHT22;31823;47.032;8.310;2023-08-06T11:52:25;16.60;99.90
46085;DHT22;31823;47.032;8.310;2023-08-06T11:55:07;17.50;99.90
46085;DHT22;31823;47.032;8.310;2023-08-06T11:57:34;17.50;99.10
46085;DHT22;31823;47.032;8.310;2023-08-06T12:00:12;18.10;99.10
46085;DHT22;31823;47.032;8.310;2023-08-06T12:02:44;18.30;98.80
46085;DHT22;31823;47.032;8.310;2023-08-06T12:07:41;19.00;98.60
46085;DHT22;31823;47.032;8.310;2023-08-06T12:10:07;18.30;98.60
46085;DHT22;31823;47.032;8.310;2023-08-06T12:12:34;17.90;98.80
46085;DHT22;31823;47.032;8.310;2023-08-06T12:15:00;17.90;98.50
46085;DHT22;31823;47.032;8.310;2023-08-06T12:17:25;18.20;98.80
46085;DHT22;31823;47.032;8.310;2023-08-06T12:19:51;18.30;98.60
46085;DHT22;31823;47.032;8.310;2023-08-06T12:22:17;18.40;98.20
46085;DHT22;31823;47.032;8.310;2023-08-06T12:24:44;18.60;97.30
46085;DHT22;31823;47.032;8.310;2023-08-06T12:27:10;18.60;97.90
46085;DHT22;31823;47.032;8.310;2023-08-06T12:29:40;18.90;97.30
46085;DHT22;31823;47.032;8.310;2023-08-06T12:32:05;19.00;96.80
46085;DHT22;31823;47.032;8.310;2023-08-06T12:34:31;18.50;97.20
46085;DHT22;31823;47.032;8.310;2023-08-06T12:36:57;18.20;98.00
46085;DHT22;31823;47.032;8.310;2023-08-06T12:39:22;17.90;97.20
46085;DHT22;31823;47.032;8.310;2023-08-06T12:41:48;18.50;96.90
46085;DHT22;31823;47.032;8.310;2023-08-06T12:44:14;18.60;97.20
46085;DHT22;31823;47.032;8.310;2023-08-06T12:46:39;19.10;97.40
46085;DHT22;31823;47.032;8.310;2023-08-06T12:49:05;19.30;95.70
46085;DHT22;31823;47.032;8.310;2023-08-06T12:51:32;19.40;96.60
46085;DHT22;31823;47.032;8.310;2023-08-06T12:53:59;19.30;98.20
46085;DHT22;31823;47.032;8.310;2023-08-06T12:56:24;19.10;98.00
46085;DHT22;31823;47.032;8.310;2023-08-06T12:58:50;19.20;96.10
46085;DHT22;31823;47.032;8.310;2023-08-06T13:01:15;18.10;96.90
46085;DHT22;31823;47.032;8.310;2023-08-06T13:03:41;17.90;97.70
46085;DHT22;31823;47.032;8.310;2023-08-06T13:06:07;18.00;97.90
46085;DHT22;31823;47.032;8.310;2023-08-06T13:08:34;17.50;98.50
46085;DHT22;31823;47.032;8.310;2023-08-06T13:11:00;16.90;99.90
46085;DHT22;31823;47.032;8.310;2023-08-06T13:13:26;16.50;99.90
46085;DHT22;31823;47.032;8.310;2023-08-06T13:15:52;17.20;99.90
46085;DHT22;31823;47.032;8.310;2023-08-06T13:18:17;17.90;99.90
46085;DHT22;31823;47.032;8.310;2023-08-06T13:20:43;18.80;99.90
46085;DHT22;31823;47.032;8.310;2023-08-06T13:23:09;18.80;98.10
46085;DHT22;31823;47.032;8.310;2023-08-06T13:25:34;18.80;97.70
46085;DHT22;31823;47.032;8.310;2023-08-06T13:28:03;18.80;96.90
46085;DHT22;31823;47.032;8.310;2023-08-06T13:30:29;19.10;96.60
46085;DHT22;31823;47.032;8.310;2023-08-06T13:32:54;18.70;98.70
46085;DHT22;31823;47.032;8.310;2023-08-06T13:35:22;19.00;97.20
46085;DHT22;31823;47.032;8.310;2023-08-06T13:37:48;18.90;98.10
46085;DHT22;31823;47.032;8.310;2023-08-06T13:40:14;18.80;97.70
46085;DHT22;31823;47.032;8.310;2023-08-06T13:42:40;18.50;98.90
46085;DHT22;31823;47.032;8.310;2023-08-06T13:45:06;17.80;98.40
46085;DHT22;31823;47.032;8.310;2023-08-06T13:47:32;18.20;99.30
46085;DHT22;31823;47.032;8.310;2023-08-06T13:49:57;17.40;99.90
46085;DHT22;31823;47.032;8.310;2023-08-06T13:52:25;18.20;99.80
46085;DHT22;31823;47.032;8.310;2023-08-06T13:54:51;17.70;99.90
46085;DHT22;31823;47.032;8.310;2023-08-06T13:57:17;17.20;99.90
46085;DHT22;31823;47.032;8.310;2023-08-06T13:59:42;16.40;99.90
46085;DHT22;31823;47.032;8.310;2023-08-06T14:02:09;15.90;99.90
46085;DHT22;31823;47.032;8.310;2023-08-06T14:04:35;16.00;99.90
46085;DHT22;31823;47.032;8.310;2023-08-06T14:07:00;16.10;99.90
46085;DHT22;31823;47.032;8.310;2023-08-06T14:09:26;17.00;99.90
46085;DHT22;31823;47.032;8.310;2023-08-06T14:11:51;17.80;99.90
46085;DHT22;31823;47.032;8.310;2023-08-06T14:14:17;17.10;99.90
46085;DHT22;31823;47.032;8.310;2023-08-06T14:16:42;16.80;99.90
46085;DHT22;31823;47.032;8.310;2023-08-06T14:19:08;16.50;99.90
46085;DHT22;31823;47.032;8.310;2023-08-06T14:21:33;16.60;99.90
46085;DHT22;31823;47.032;8.310;2023-08-06T14:23:59;16.50;99.90
46085;DHT22;31823;47.032;8.310;2023-08-06T14:26:24;16.60;99.90
46085;DHT22;31823;47.032;8.310;2023-08-06T14:28:50;16.40;99.90
46085;DHT22;31823;47.032;8.310;2023-08-06T14:31:19;16.40;99.90
46085;DHT22;31823;47.032;8.310;2023-08-06T14:33:45;16.50;99.90
46085;DHT22;31823;47.032;8.310;2023-08-06T14:36:10;16.80;99.90
46085;DHT22;31823;47.032;8.310;2023-08-06T14:38:36;16.50;99.90
46085;DHT22;31823;47.032;8.310;2023-08-06T14:41:01;16.50;99.90
46085;DHT22;31823;47.032;8.310;2023-08-06T14:43:27;16.60;99.90
46085;DHT22;31823;47.032;8.310;2023-08-06T14:45:53;16.90;99.90
46085;DHT22;31823;47.032;8.310;2023-08-06T14:48:18;17.50;99.30
46085;DHT22;31823;47.032;8.310;2023-08-06T14:50:44;17.20;99.90
46085;DHT22;31823;47.032;8.310;2023-08-06T14:53:09;16.90;99.90
46085;DHT22;31823;47.032;8.310;2023-08-06T14:55:37;17.10;99.50
46085;DHT22;31823;47.032;8.310;2023-08-06T14:58:02;17.10;99.00
46085;DHT22;31823;47.032;8.310;2023-08-06T15:00:28;17.00;99.10
46085;DHT22;31823;47.032;8.310;2023-08-06T15:02:54;17.40;99.90
46085;DHT22;31823;47.032;8.310;2023-08-06T15:05:20;17.20;98.90
46085;DHT22;31823;47.032;8.310;2023-08-06T15:07:45;17.60;99.50
46085;DHT22;31823;47.032;8.310;2023-08-06T15:10:11;17.80;98.70
46085;DHT22;31823;47.032;8.310;2023-08-06T15:12:36;17.40;99.40
46085;DHT22;31823;47.032;8.310;2023-08-06T15:15:02;17.20;99.90
46085;DHT22;31823;47.032;8.310;2023-08-06T15:17:28;17.10;99.80
46085;DHT22;31823;47.032;8.310;2023-08-06T15:19:58;16.90;99.90
46085;DHT22;31823;47.032;8.310;2023-08-06T15:22:25;16.90;99.90
46085;DHT22;31823;47.032;8.310;2023-08-06T15:24:51;16.80;99.90
46085;DHT22;31823;47.032;8.310;2023-08-06T15:27:16;16.70;99.90
46085;DHT22;31823;47.032;8.310;2023-08-06T15:29:43;16.80;99.90
46085;DHT22;31823;47.032;8.310;2023-08-06T15:32:09;16.60;99.90